Mathilde Maersk — OUJS2 — position and weather

sailwx.info

Track history (hours):
 
Tides and Currents Weather Stations Pressure Air Temp Water Temp Dewpoint Dewpoint Depression Visibility Wind Speed Wind Dir Waves Ship Positions

Mathilde Maersk

Last reported at 2015-Aug-27 11:08 UTC. Time now 2015-Sep-03 15:18 UTC.
Position N 30°38' E 122°03'.

Length 367 m; draft 12.2 m.

Type: Ship (hazmat cat B). MMSI: 220597990.

Date/timePositionNaut miles runAvg speedWind from/ knotsBaromVisibWave heightAir tempDewpointWater temp
2015-Aug-27 11:08N 30°38' E 122°03'0 0.0
2015-Aug-27 10:32N 30°38' E 122°03'0 0.0
2015-Aug-27 09:32N 30°38' E 122°03'0 0.0
2015-Aug-27 08:32N 30°38' E 122°03'0 0.0
2015-Aug-27 07:32N 30°38' E 122°03'0 0.0
2015-Aug-27 06:32N 30°38' E 122°03'0 0.0
2015-Aug-27 03:25N 30°38' E 122°03'1 0.6
2015-Aug-27 02:33N 30°37' E 122°03'8 7.3
2015-Aug-27 01:31N 30°34' E 122°11'13 6.5
2015-Aug-26 23:27N 30°33' E 122°26'10 7.9
2015-Aug-26 22:14N 30°30' E 122°37'7 7.4
2015-Aug-26 21:19N 30°28' E 122°45'5 7.0
2015-Aug-26 20:33N 30°25' E 122°50'7 7.0
2015-Aug-26 19:33N 30°21' E 122°56'45 4.1
2015-Aug-26 08:21N 29°44' E 122°25'4 5.2
2015-Aug-26 07:33N 29°44' E 122°20'10 9.1
2015-Aug-26 06:26N 29°51' E 122°12'1413.0
2015-Aug-26 05:23N 29°58' E 121°58'7 7.2
2015-Aug-26 04:24N 29°57' E 121°50'0 0.0
2015-Aug-25 15:28N 29°57' E 121°50'4 4.0
2015-Aug-25 14:33N 29°57' E 121°54'10 9.9
2015-Aug-25 13:31N 29°56' E 122°06'1611.9
2015-Aug-25 12:13N 29°45' E 122°19'3 4.8
2015-Aug-25 11:30N 29°45' E 122°23'1 0.2
2015-Aug-25 03:25N 29°46' E 122°24'4 4.7
2015-Aug-25 02:33N 29°42' E 122°25'16 7.3
2015-Aug-25 00:21N 29°26' E 122°30'6 6.9
2015-Aug-24 23:31N 29°21' E 122°30'34611.2
2015-Aug-23 16:32N 24°23' E 119°12'5917.7
2015-Aug-23 13:13N 23°49' E 118°20'6417.3
2015-Aug-23 09:29N 23°10' E 117°24'1718.3
2015-Aug-23 08:34N 22°60' E 117°10'1818.2
2015-Aug-23 07:34N 22°49' E 116°54'1818.0
2015-Aug-23 06:33N 22°37' E 116°39'120 2.4
2015-Aug-21 05:07N 22°23' E 114°30'153 7.6
2015-Aug-20 09:06N 23°00' E 117°10'5611.1
2015-Aug-20 04:06N 23°34' E 117°58'2413.3
2015-Aug-20 02:19N 23°47' E 118°20'4812.6
2015-Aug-19 22:33N 24°16' E 119°01'  
Track history (hours):
 
Tides and Currents Weather Stations Pressure Air Temp Water Temp Dewpoint Dewpoint Depression Visibility Wind Speed Wind Dir Waves Ship Positions

Mathilde Maersk

Last reported at 2015-Aug-27 11:08 UTC. Time now 2015-Sep-03 15:18 UTC.
Position N 30°38' E 122°03'.

Length 367 m; draft 12.2 m.

Type: Ship (hazmat cat B). MMSI: 220597990.

Date/timePositionNaut miles runAvg speedWind from/ knotsBaromVisibWave heightAir tempDewpointWater temp
2015-Aug-27 11:08N 30°38' E 122°03'0 0.0
2015-Aug-27 10:32N 30°38' E 122°03'0 0.0
2015-Aug-27 09:32N 30°38' E 122°03'0 0.0
2015-Aug-27 08:32N 30°38' E 122°03'0 0.0
2015-Aug-27 07:32N 30°38' E 122°03'0 0.0
2015-Aug-27 06:32N 30°38' E 122°03'0 0.0
2015-Aug-27 03:25N 30°38' E 122°03'1 0.6
2015-Aug-27 02:33N 30°37' E 122°03'8 7.3
2015-Aug-27 01:31N 30°34' E 122°11'13 6.5
2015-Aug-26 23:27N 30°33' E 122°26'10 7.9
2015-Aug-26 22:14N 30°30' E 122°37'7 7.4
2015-Aug-26 21:19N 30°28' E 122°45'5 7.0
2015-Aug-26 20:33N 30°25' E 122°50'7 7.0
2015-Aug-26 19:33N 30°21' E 122°56'45 4.1
2015-Aug-26 08:21N 29°44' E 122°25'4 5.2
2015-Aug-26 07:33N 29°44' E 122°20'10 9.1
2015-Aug-26 06:26N 29°51' E 122°12'1413.0
2015-Aug-26 05:23N 29°58' E 121°58'7 7.2
2015-Aug-26 04:24N 29°57' E 121°50'0 0.0
2015-Aug-25 15:28N 29°57' E 121°50'4 4.0
2015-Aug-25 14:33N 29°57' E 121°54'10 9.9
2015-Aug-25 13:31N 29°56' E 122°06'1611.9
2015-Aug-25 12:13N 29°45' E 122°19'3 4.8
2015-Aug-25 11:30N 29°45' E 122°23'1 0.2
2015-Aug-25 03:25N 29°46' E 122°24'4 4.7
2015-Aug-25 02:33N 29°42' E 122°25'16 7.3
2015-Aug-25 00:21N 29°26' E 122°30'6 6.9
2015-Aug-24 23:31N 29°21' E 122°30'34611.2
2015-Aug-23 16:32N 24°23' E 119°12'5917.7
2015-Aug-23 13:13N 23°49' E 118°20'6417.3
2015-Aug-23 09:29N 23°10' E 117°24'1718.3
2015-Aug-23 08:34N 22°60' E 117°10'1818.2
2015-Aug-23 07:34N 22°49' E 116°54'1818.0
2015-Aug-23 06:33N 22°37' E 116°39'120 2.4
2015-Aug-21 05:07N 22°23' E 114°30'153 7.6
2015-Aug-20 09:06N 23°00' E 117°10'5611.1
2015-Aug-20 04:06N 23°34' E 117°58'2413.3
2015-Aug-20 02:19N 23°47' E 118°20'4812.6
2015-Aug-19 22:33N 24°16' E 119°01'  

Dump ship's entire track history